Time;durP1;ratioP1;P1;durP2;ratioP2;P2;SDS_P1;SDS_P2;PMS_P1;PMS_P2;Temp;Humidity;BMP_temperature;BMP_pressure;BME280_temperature;BME280_humidity;BME280_pressure;Samples;Min_cycle;Max_cycle;Signal;HPM_P1;HPM_P2
2021/04/06 00:00:22;;;;;;;;;;;-1.90;99.90;;;;;;5052281;28;20042;-73
2021/04/06 00:02:50;;;;;;;;;;;-2.00;99.90;;;;;;5052553;28;20359;-73
2021/04/06 00:05:17;;;;;;;;;;;-2.00;99.90;;;;;;5052498;28;19944;-72
2021/04/06 00:07:43;;;;;;;;;;;-2.00;99.90;;;;;;5051391;28;19916;-73
2021/04/06 00:10:12;;;;;;;;;;;-2.00;99.90;;;;;;5052444;28;19916;-73
2021/04/06 00:12:38;;;;;;;;;;;-2.00;99.90;;;;;;5052230;28;19909;-72
2021/04/06 00:15:07;;;;;;;;;;;-2.00;99.90;;;;;;5051996;28;19913;-73
2021/04/06 00:17:33;;;;;;;;;;;-2.00;99.90;;;;;;5062587;28;19909;-73
2021/04/06 00:19:59;;;;;;;;;;;-2.10;99.90;;;;;;5058277;28;19909;-73
2021/04/06 00:22:26;;;;;;;;;;;-2.10;99.90;;;;;;5052115;28;19908;-73
2021/04/06 00:24:53;;;;;;;;;;;-2.20;99.90;;;;;;5052239;28;19992;-73
2021/04/06 00:27:21;;;;;;;;;;;-2.20;99.90;;;;;;5050438;28;19912;-73
2021/04/06 00:29:50;;;;;;;;;;;-2.20;99.90;;;;;;5051645;28;19909;-73
2021/04/06 00:32:16;;;;;;;;;;;-2.30;99.90;;;;;;5051976;28;19952;-73
2021/04/06 00:34:42;;;;;;;;;;;-2.20;99.90;;;;;;5051811;28;19962;-73
2021/04/06 00:37:13;;;;;;;;;;;-2.30;99.90;;;;;;5050711;28;19921;-73
2021/04/06 00:39:38;;;;;;;;;;;-2.40;99.90;;;;;;5051742;28;19952;-73
2021/04/06 00:42:06;;;;;;;;;;;-2.40;99.90;;;;;;5051755;28;19950;-73
2021/04/06 00:44:33;;;;;;;;;;;-2.50;99.90;;;;;;5051507;28;20358;-73
2021/04/06 00:46:59;;;;;;;;;;;-2.50;99.90;;;;;;5056027;28;19917;-73
2021/04/06 00:49:24;;;;;;;;;;;-2.60;99.90;;;;;;5058092;28;19967;-73
2021/04/06 00:51:51;;;;;;;;;;;-2.70;99.90;;;;;;5051646;28;19915;-73
2021/04/06 00:54:17;;;;;;;;;;;-2.80;99.90;;;;;;5051634;28;20003;-73
2021/04/06 00:56:44;;;;;;;;;;;-2.80;99.90;;;;;;5050446;28;20364;-73
2021/04/06 00:59:10;;;;;;;;;;;-2.90;99.90;;;;;;5051125;28;20055;-73
2021/04/06 01:01:46;;;;;;;;;;;-3.00;99.90;;;;;;5051314;28;20004;-73
2021/04/06 01:04:13;;;;;;;;;;;-3.00;99.90;;;;;;5051508;28;19908;-73
2021/04/06 01:06:57;;;;;;;;;;;-3.10;99.90;;;;;;5050276;28;19913;-73
2021/04/06 01:09:46;;;;;;;;;;;-3.10;99.90;;;;;;5051456;28;19908;-73
2021/04/06 01:12:12;;;;;;;;;;;-3.10;99.90;;;;;;5065573;28;20042;-73
2021/04/06 01:14:40;;;;;;;;;;;-3.20;99.90;;;;;;5070311;28;19992;-72
2021/04/06 01:17:06;;;;;;;;;;;-3.10;99.90;;;;;;5070669;28;19909;-73
2021/04/06 01:19:32;;;;;;;;;;;-3.10;99.90;;;;;;5055643;28;19909;-73
2021/04/06 01:22:00;;;;;;;;;;;-3.10;99.90;;;;;;5055242;28;19917;-73
2021/04/06 01:24:29;;;;;;;;;;;-3.10;99.90;;;;;;5066557;28;19908;-74
2021/04/06 01:26:58;;;;;;;;;;;-3.10;99.90;;;;;;5061262;28;19982;-74
2021/04/06 01:29:24;;;;;;;;;;;-3.10;99.90;;;;;;5050839;28;19913;-74
2021/04/06 01:31:50;;;;;;;;;;;-3.10;99.90;;;;;;5051048;28;20324;-74
2021/04/06 01:34:16;;;;;;;;;;;-3.10;99.90;;;;;;5046528;28;20004;-74
2021/04/06 01:36:42;;;;;;;;;;;-3.10;99.90;;;;;;5049940;28;19917;-73
2021/04/06 01:39:11;;;;;;;;;;;-3.10;99.90;;;;;;5052935;28;19917;-74
2021/04/06 01:41:37;;;;;;;;;;;-3.10;99.90;;;;;;5055169;28;20271;-73
2021/04/06 01:44:03;;;;;;;;;;;-3.10;99.90;;;;;;5054995;28;19908;-73
2021/04/06 01:46:36;;;;;;;;;;;-3.10;99.90;;;;;;5055270;28;19913;-74
2021/04/06 01:49:02;;;;;;;;;;;-3.10;99.90;;;;;;5064187;28;19961;-74
2021/04/06 01:51:27;;;;;;;;;;;-3.10;99.90;;;;;;5054916;28;19909;-73
2021/04/06 01:53:53;;;;;;;;;;;-3.10;99.90;;;;;;5054923;28;19927;-73
2021/04/06 01:56:22;;;;;;;;;;;-3.10;99.90;;;;;;5053870;28;19908;-73
2021/04/06 01:58:51;;;;;;;;;;;-3.10;99.90;;;;;;5055118;28;20004;-74
2021/04/06 02:04:08;;;;;;;;;;;-3.00;99.90;;;;;;5054876;28;19919;-73
2021/04/06 02:06:39;;;;;;;;;;;-3.00;99.90;;;;;;5053328;28;19967;-73
2021/04/06 02:09:08;;;;;;;;;;;-3.00;99.90;;;;;;5054589;28;20467;-74
2021/04/06 02:11:35;;;;;;;;;;;-3.00;99.90;;;;;;5054460;28;19919;-73
2021/04/06 02:14:04;;;;;;;;;;;-3.00;99.90;;;;;;5054238;28;19916;-73
2021/04/06 02:16:48;;;;;;;;;;;-3.00;99.90;;;;;;5067971;28;19955;-73
2021/04/06 02:19:19;;;;;;;;;;;-3.00;99.90;;;;;;5060807;28;19913;-73
2021/04/06 02:21:51;;;;;;;;;;;-3.00;99.90;;;;;;5069615;28;19952;-74
2021/04/06 02:24:24;;;;;;;;;;;-3.00;99.90;;;;;;5073808;28;19908;-73
2021/04/06 02:26:55;;;;;;;;;;;-3.00;99.90;;;;;;5062371;28;20385;-73
2021/04/06 02:29:21;;;;;;;;;;;-3.10;99.90;;;;;;5053896;28;20008;-73
2021/04/06 02:31:46;;;;;;;;;;;-3.10;99.90;;;;;;5054147;28;19967;-73
2021/04/06 02:34:12;;;;;;;;;;;-3.10;99.90;;;;;;5052999;28;19909;-73
2021/04/06 02:36:37;;;;;;;;;;;-3.10;99.90;;;;;;5053151;28;19917;-73
2021/04/06 02:39:03;;;;;;;;;;;-3.10;99.90;;;;;;5054125;28;19913;-74
2021/04/06 02:41:29;;;;;;;;;;;-3.10;99.90;;;;;;5053884;28;20337;-74
2021/04/06 02:43:55;;;;;;;;;;;-3.10;99.90;;;;;;5053800;28;20393;-74
2021/04/06 02:46:27;;;;;;;;;;;-3.10;99.90;;;;;;5063994;28;19913;-73
2021/04/06 02:48:57;;;;;;;;;;;-3.10;99.90;;;;;;5061045;28;19954;-73
2021/04/06 02:51:23;;;;;;;;;;;-3.20;99.90;;;;;;5051869;28;19959;-73
2021/04/06 02:53:52;;;;;;;;;;;-3.20;99.90;;;;;;5053805;28;19912;-73
2021/04/06 02:56:31;;;;;;;;;;;-3.20;99.90;;;;;;5052422;28;20422;-73
2021/04/06 02:59:16;;;;;;;;;;;-3.20;99.90;;;;;;5053822;28;19992;-73
2021/04/06 03:01:42;;;;;;;;;;;-3.20;99.90;;;;;;5067621;28;19913;-73
2021/04/06 03:04:17;;;;;;;;;;;-3.20;99.90;;;;;;5072631;28;19909;-73
2021/04/06 03:06:43;;;;;;;;;;;-3.20;99.90;;;;;;5071427;28;19912;-73
2021/04/06 03:09:13;;;;;;;;;;;-3.20;99.90;;;;;;5072956;28;19970;-73
2021/04/06 03:11:45;;;;;;;;;;;-3.20;99.90;;;;;;5072416;28;20270;-73
2021/04/06 03:14:11;;;;;;;;;;;-3.20;99.90;;;;;;5070870;28;19909;-73
2021/04/06 03:16:37;;;;;;;;;;;-3.30;99.90;;;;;;5060550;28;19959;-72
2021/04/06 03:19:04;;;;;;;;;;;-3.20;99.90;;;;;;5062034;28;19913;-73
2021/04/06 03:21:29;;;;;;;;;;;-3.20;99.90;;;;;;5054590;28;19913;-73
2021/04/06 03:23:55;;;;;;;;;;;-3.20;99.90;;;;;;5061162;28;19919;-73
2021/04/06 03:26:22;;;;;;;;;;;-3.20;99.90;;;;;;5056725;28;19913;-74
2021/04/06 03:28:48;;;;;;;;;;;-3.30;99.90;;;;;;5056244;28;20358;-73
2021/04/06 03:31:15;;;;;;;;;;;-3.20;99.90;;;;;;5052977;28;19909;-73
2021/04/06 03:33:42;;;;;;;;;;;-3.20;99.90;;;;;;5052951;28;19909;-73
2021/04/06 03:36:08;;;;;;;;;;;-3.20;99.90;;;;;;5051774;28;20002;-73
2021/04/06 03:38:34;;;;;;;;;;;-3.20;99.90;;;;;;5053040;28;19932;-73
2021/04/06 03:41:00;;;;;;;;;;;-3.20;99.90;;;;;;5052995;28;19932;-73
2021/04/06 03:43:26;;;;;;;;;;;-3.20;99.90;;;;;;5052906;28;19919;-73
2021/04/06 03:45:51;;;;;;;;;;;-3.20;99.90;;;;;;5055174;28;20030;-73
2021/04/06 03:48:20;;;;;;;;;;;-3.20;99.90;;;;;;5054969;28;20332;-73
2021/04/06 03:50:46;;;;;;;;;;;-3.20;99.90;;;;;;5058254;28;20385;-73
2021/04/06 03:53:12;;;;;;;;;;;-3.20;99.90;;;;;;5052815;28;19909;-73
2021/04/06 03:55:38;;;;;;;;;;;-3.20;99.90;;;;;;5050721;28;19952;-73
2021/04/06 03:58:12;;;;;;;;;;;-3.20;99.90;;;;;;5052463;28;20013;-73
2021/04/06 04:00:37;;;;;;;;;;;-3.20;99.90;;;;;;5052551;28;19908;-73
2021/04/06 04:03:03;;;;;;;;;;;-3.20;99.90;;;;;;5051343;28;19934;-74
2021/04/06 04:05:29;;;;;;;;;;;-3.20;99.90;;;;;;5052469;28;19909;-73
2021/04/06 04:07:54;;;;;;;;;;;-3.20;99.90;;;;;;5051445;28;19913;-73
2021/04/06 04:10:20;;;;;;;;;;;-3.10;99.90;;;;;;5052208;28;19917;-73
2021/04/06 04:12:45;;;;;;;;;;;-3.10;99.90;;;;;;5052282;28;19947;-73
2021/04/06 04:15:11;;;;;;;;;;;-3.10;99.90;;;;;;5052000;28;19916;-74
2021/04/06 04:17:37;;;;;;;;;;;-3.10;99.90;;;;;;5064137;28;19912;-73
2021/04/06 04:20:21;;;;;;;;;;;-3.10;99.90;;;;;;5058794;28;19917;-73
2021/04/06 04:22:47;;;;;;;;;;;-3.10;99.90;;;;;;5066910;28;19924;-73
2021/04/06 04:25:13;;;;;;;;;;;-3.00;99.90;;;;;;5071314;28;20300;-73
2021/04/06 04:27:39;;;;;;;;;;;-3.00;99.90;;;;;;5070190;28;20282;-73
2021/04/06 04:30:05;;;;;;;;;;;-3.00;99.90;;;;;;5070919;28;19915;-73
2021/04/06 04:32:31;;;;;;;;;;;-3.00;99.90;;;;;;5070875;28;19913;-73
2021/04/06 04:34:56;;;;;;;;;;;-3.00;99.90;;;;;;5071109;28;20380;-73
2021/04/06 04:37:22;;;;;;;;;;;-3.00;99.90;;;;;;5070074;28;19916;-73
2021/04/06 04:39:47;;;;;;;;;;;-2.90;99.90;;;;;;5071518;28;20371;-73
2021/04/06 04:42:13;;;;;;;;;;;-2.90;99.90;;;;;;5072075;28;19923;-73
2021/04/06 04:44:38;;;;;;;;;;;-2.80;99.90;;;;;;5071024;28;20369;-73
2021/04/06 04:47:04;;;;;;;;;;;-2.80;99.90;;;;;;5057407;28;19917;-73
2021/04/06 04:49:29;;;;;;;;;;;-2.70;99.90;;;;;;5061313;28;20163;-73
2021/04/06 04:51:55;;;;;;;;;;;-2.60;99.90;;;;;;5052037;28;19909;-73
2021/04/06 04:54:20;;;;;;;;;;;-2.60;99.90;;;;;;5050734;28;19966;-73
2021/04/06 04:56:46;;;;;;;;;;;-2.60;99.90;;;;;;5050721;28;19934;-73
2021/04/06 04:59:11;;;;;;;;;;;-2.50;99.90;;;;;;5050503;28;19958;-73
2021/04/06 05:01:37;;;;;;;;;;;-2.50;99.90;;;;;;5052811;28;19909;-73
2021/04/06 05:04:02;;;;;;;;;;;-2.40;99.90;;;;;;5052693;28;19909;-73
2021/04/06 05:06:28;;;;;;;;;;;-2.40;99.90;;;;;;5049443;28;20508;-73
2021/04/06 05:08:53;;;;;;;;;;;-2.40;99.90;;;;;;5050193;28;19909;-73
2021/04/06 05:11:19;;;;;;;;;;;-2.30;99.90;;;;;;5051070;28;19913;-73
2021/04/06 05:13:46;;;;;;;;;;;-2.30;99.90;;;;;;5052506;28;19909;-73
2021/04/06 05:16:11;;;;;;;;;;;-2.30;99.90;;;;;;5054632;28;20370;-73
2021/04/06 05:18:36;;;;;;;;;;;-2.30;99.90;;;;;;5056527;28;20027;-73
2021/04/06 05:21:02;;;;;;;;;;;-2.20;99.90;;;;;;5053117;28;20340;-73
2021/04/06 05:23:27;;;;;;;;;;;-2.20;99.90;;;;;;5063635;28;19919;-73
2021/04/06 05:25:54;;;;;;;;;;;-2.20;99.90;;;;;;5060744;28;19917;-73
2021/04/06 05:28:19;;;;;;;;;;;-2.10;99.90;;;;;;5052510;28;19912;-73
2021/04/06 05:30:45;;;;;;;;;;;-2.10;99.90;;;;;;5051560;28;19962;-73
2021/04/06 05:33:10;;;;;;;;;;;-2.10;99.90;;;;;;5052072;28;19913;-73
2021/04/06 05:35:36;;;;;;;;;;;-2.10;99.90;;;;;;5050941;28;19943;-73
2021/04/06 05:38:01;;;;;;;;;;;-2.00;99.90;;;;;;5051480;28;20373;-73
2021/04/06 05:40:26;;;;;;;;;;;-2.00;99.90;;;;;;5051945;28;19916;-73
2021/04/06 05:42:52;;;;;;;;;;;-1.90;99.90;;;;;;5051484;28;19915;-73
2021/04/06 05:45:21;;;;;;;;;;;-1.80;99.90;;;;;;5051428;28;19994;-73
2021/04/06 05:47:50;;;;;;;;;;;-1.80;99.90;;;;;;5063292;28;19908;-73
2021/04/06 05:50:15;;;;;;;;;;;-1.80;99.90;;;;;;5058534;28;19951;-73
2021/04/06 05:52:41;;;;;;;;;;;-1.70;99.90;;;;;;5058920;28;20039;-73
2021/04/06 05:55:07;;;;;;;;;;;-1.70;99.90;;;;;;5051865;28;19909;-73
2021/04/06 05:57:33;;;;;;;;;;;-1.60;99.90;;;;;;5050247;28;20392;-73
2021/04/06 05:59:58;;;;;;;;;;;-1.60;99.90;;;;;;5051413;28;19913;-73
2021/04/06 06:02:24;;;;;;;;;;;-1.50;99.90;;;;;;5051213;28;19909;-73
2021/04/06 06:04:49;;;;;;;;;;;-1.50;99.90;;;;;;5051205;28;19933;-73
2021/04/06 06:07:16;;;;;;;;;;;-1.50;99.90;;;;;;5049792;28;19960;-73
2021/04/06 06:09:42;;;;;;;;;;;-1.50;99.90;;;;;;5062705;28;20322;-73
2021/04/06 06:12:12;;;;;;;;;;;-1.40;99.90;;;;;;5061822;28;19960;-73
2021/04/06 06:14:37;;;;;;;;;;;-1.40;99.90;;;;;;5057057;28;19988;-73
2021/04/06 06:17:15;;;;;;;;;;;-1.30;99.90;;;;;;5055913;28;19999;-73
2021/04/06 06:19:40;;;;;;;;;;;-1.20;99.90;;;;;;5057305;28;20298;-73
2021/04/06 06:22:25;;;;;;;;;;;-1.20;99.90;;;;;;5051051;28;19909;-73
2021/04/06 06:25:00;;;;;;;;;;;-1.10;99.90;;;;;;5064328;28;19917;-73
2021/04/06 06:28:00;;;;;;;;;;;-1.00;99.90;;;;;;5060195;28;19982;-73
2021/04/06 06:30:19;;;;;;;;;;;-0.90;99.90;;;;;;5060715;28;20366;-73
2021/04/06 06:32:45;;;;;;;;;;;-0.90;99.90;;;;;;5062397;28;20004;-73
2021/04/06 06:35:10;;;;;;;;;;;-0.90;99.90;;;;;;5062361;28;19913;-73
2021/04/06 06:37:36;;;;;;;;;;;-0.80;99.90;;;;;;5059444;28;20362;-72
2021/04/06 06:40:04;;;;;;;;;;;-0.80;99.90;;;;;;5063463;28;19913;-73
2021/04/06 06:42:37;;;;;;;;;;;-0.80;99.90;;;;;;5063962;28;19913;-73
2021/04/06 06:45:05;;;;;;;;;;;-0.70;99.90;;;;;;5060558;28;19908;-73
2021/04/06 06:47:33;;;;;;;;;;;-0.70;99.90;;;;;;5070849;28;19916;-73
2021/04/06 06:50:09;;;;;;;;;;;-0.70;99.90;;;;;;5060386;28;19916;-73
2021/04/06 06:52:34;;;;;;;;;;;-0.60;99.90;;;;;;5063166;28;19962;-73
2021/04/06 06:55:02;;;;;;;;;;;-0.50;99.90;;;;;;5067116;28;19916;-73
2021/04/06 06:57:29;;;;;;;;;;;-0.50;99.90;;;;;;5065939;28;19908;-73
2021/04/06 07:00:01;;;;;;;;;;;-0.40;99.90;;;;;;5064210;28;19912;-73
2021/04/06 07:02:29;;;;;;;;;;;-0.30;99.90;;;;;;5058878;28;20354;-73
2021/04/06 07:05:13;;;;;;;;;;;-0.20;99.90;;;;;;5061980;28;20145;-72
2021/04/06 07:07:51;;;;;;;;;;;-0.10;99.90;;;;;;5065023;28;19913;-72
2021/04/06 07:10:17;;;;;;;;;;;0.00;99.90;;;;;;5053890;28;19986;-73
2021/04/06 07:12:44;;;;;;;;;;;0.20;99.90;;;;;;5058275;28;19912;-73
2021/04/06 07:15:10;;;;;;;;;;;0.20;99.90;;;;;;5059201;28;19919;-73
2021/04/06 07:17:37;;;;;;;;;;;0.30;99.90;;;;;;5067542;28;19987;-72
2021/04/06 07:20:03;;;;;;;;;;;0.40;99.90;;;;;;5065327;28;19913;-73
2021/04/06 07:22:29;;;;;;;;;;;0.50;99.90;;;;;;5059645;28;19915;-72
2021/04/06 07:24:55;;;;;;;;;;;0.60;99.90;;;;;;5064428;28;19912;-72
2021/04/06 07:27:21;;;;;;;;;;;0.60;99.90;;;;;;5064655;28;19923;-73
2021/04/06 07:29:46;;;;;;;;;;;0.70;99.90;;;;;;5066688;28;20438;-72
2021/04/06 07:32:13;;;;;;;;;;;0.70;99.90;;;;;;5064937;28;21012;-72
2021/04/06 07:34:40;;;;;;;;;;;0.70;99.90;;;;;;5059151;28;19960;-72
2021/04/06 07:37:06;;;;;;;;;;;0.80;99.90;;;;;;5064088;28;20326;-72
2021/04/06 07:39:32;;;;;;;;;;;0.90;99.90;;;;;;5065223;28;20051;-72
2021/04/06 07:41:58;;;;;;;;;;;1.20;99.90;;;;;;5060105;28;19908;-73
2021/04/06 07:44:25;;;;;;;;;;;1.40;99.90;;;;;;5063309;28;20350;-72
2021/04/06 07:46:51;;;;;;;;;;;1.50;99.90;;;;;;5055414;28;19924;-73
2021/04/06 07:49:17;;;;;;;;;;;1.70;99.90;;;;;;5057891;28;20380;-72
2021/04/06 07:51:45;;;;;;;;;;;1.80;99.90;;;;;;5069646;28;19913;-72
2021/04/06 07:54:17;;;;;;;;;;;2.30;99.90;;;;;;5069696;28;20368;-72
2021/04/06 07:56:43;;;;;;;;;;;2.80;99.90;;;;;;5067386;28;19992;-72
2021/04/06 07:59:09;;;;;;;;;;;2.80;99.90;;;;;;5059179;28;20003;-72
2021/04/06 08:01:34;;;;;;;;;;;2.60;99.90;;;;;;5080460;28;20385;-72
2021/04/06 08:04:01;;;;;;;;;;;2.30;99.90;;;;;;5072375;28;19912;-72
2021/04/06 08:06:28;;;;;;;;;;;2.10;99.90;;;;;;5068985;28;19912;-72
2021/04/06 08:08:54;;;;;;;;;;;2.00;99.90;;;;;;5070002;28;19919;-72
2021/04/06 08:11:20;;;;;;;;;;;1.90;99.90;;;;;;5072327;28;20344;-72
2021/04/06 08:13:45;;;;;;;;;;;1.80;99.90;;;;;;5069549;28;19977;-72
2021/04/06 08:16:12;;;;;;;;;;;1.80;99.90;;;;;;5087737;28;20372;-71
2021/04/06 08:19:06;;;;;;;;;;;1.70;99.90;;;;;;5073227;28;19956;-71
2021/04/06 08:21:32;;;;;;;;;;;1.70;99.90;;;;;;5068891;28;19958;-71
2021/04/06 08:23:58;;;;;;;;;;;1.70;99.90;;;;;;5072195;28;19908;-71
2021/04/06 08:26:27;;;;;;;;;;;1.90;99.90;;;;;;5071786;28;19935;-71
2021/04/06 08:28:53;;;;;;;;;;;2.00;99.90;;;;;;5070058;28;19915;-71
2021/04/06 08:31:32;;;;;;;;;;;2.10;99.90;;;;;;5075429;28;19909;-71
2021/04/06 08:34:25;;;;;;;;;;;2.20;99.90;;;;;;5070928;28;19947;-71
2021/04/06 08:37:10;;;;;;;;;;;2.30;99.90;;;;;;5063888;28;20131;-71
2021/04/06 08:39:36;;;;;;;;;;;2.30;99.90;;;;;;5068447;28;19909;-71
2021/04/06 08:42:03;;;;;;;;;;;2.30;99.90;;;;;;5063283;28;20377;-71
2021/04/06 08:44:29;;;;;;;;;;;2.30;99.90;;;;;;5068230;28;19909;-70
2021/04/06 08:46:55;;;;;;;;;;;2.40;99.90;;;;;;5079424;28;19935;-70
2021/04/06 08:49:25;;;;;;;;;;;2.40;99.90;;;;;;5070665;28;19919;-70
2021/04/06 08:51:52;;;;;;;;;;;2.30;99.90;;;;;;5067505;28;19909;-70
2021/04/06 08:54:21;;;;;;;;;;;2.20;99.90;;;;;;5071315;28;19909;-71
2021/04/06 08:56:47;;;;;;;;;;;2.10;99.90;;;;;;5079740;28;20262;-70
2021/04/06 08:59:12;;;;;;;;;;;2.10;99.90;;;;;;5056955;28;19916;-70
2021/04/06 09:01:38;;;;;;;;;;;2.10;99.90;;;;;;5050979;28;19909;-70
2021/04/06 09:04:10;;;;;;;;;;;2.10;99.90;;;;;;5070737;28;19913;-70
2021/04/06 09:06:35;;;;;;;;;;;2.10;99.90;;;;;;5062834;28;19963;-70
2021/04/06 09:09:01;;;;;;;;;;;2.10;99.90;;;;;;5061733;28;19940;-70
2021/04/06 09:11:26;;;;;;;;;;;2.00;99.90;;;;;;5071255;28;19940;-70
2021/04/06 09:13:53;;;;;;;;;;;1.80;99.90;;;;;;5064739;28;19912;-70
2021/04/06 09:16:29;;;;;;;;;;;1.80;99.90;;;;;;5072010;28;20373;-70
2021/04/06 09:18:55;;;;;;;;;;;1.70;99.90;;;;;;5071116;28;19915;-70
2021/04/06 09:21:22;;;;;;;;;;;1.70;99.90;;;;;;5071741;28;19919;-70
2021/04/06 09:23:51;;;;;;;;;;;1.80;99.90;;;;;;5069393;28;19912;-70
2021/04/06 09:26:17;;;;;;;;;;;1.90;99.90;;;;;;5062326;28;19917;-70
2021/04/06 09:28:42;;;;;;;;;;;2.10;99.90;;;;;;5061805;28;20441;-70
2021/04/06 09:31:08;;;;;;;;;;;2.20;99.90;;;;;;5057093;28;19908;-70
2021/04/06 09:33:34;;;;;;;;;;;2.40;99.90;;;;;;5064295;28;20285;-70
2021/04/06 09:35:59;;;;;;;;;;;2.50;99.90;;;;;;5056181;28;19924;-70
2021/04/06 09:38:25;;;;;;;;;;;2.70;99.90;;;;;;5064148;28;19909;-70
2021/04/06 09:40:51;;;;;;;;;;;2.90;99.90;;;;;;5065908;28;19909;-70
2021/04/06 09:43:17;;;;;;;;;;;3.00;99.90;;;;;;5063476;28;20441;-70
2021/04/06 09:45:42;;;;;;;;;;;3.10;99.90;;;;;;5065122;28;19912;-70
2021/04/06 09:48:11;;;;;;;;;;;3.20;99.90;;;;;;5061693;28;20310;-70
2021/04/06 09:50:37;;;;;;;;;;;3.50;99.90;;;;;;5060432;28;19954;-70
2021/04/06 09:53:14;;;;;;;;;;;3.70;99.90;;;;;;5060711;28;20002;-70
2021/04/06 09:55:40;;;;;;;;;;;3.90;99.90;;;;;;5062373;28;19963;-70
2021/04/06 09:58:05;;;;;;;;;;;4.20;99.90;;;;;;5069050;28;19944;-70
2021/04/06 10:00:32;;;;;;;;;;;4.50;99.60;;;;;;5067166;28;20025;-70
2021/04/06 10:03:05;;;;;;;;;;;4.30;99.00;;;;;;5066726;28;19908;-70
2021/04/06 10:05:31;;;;;;;;;;;4.10;99.00;;;;;;5064626;28;19913;-70
2021/04/06 10:07:56;;;;;;;;;;;3.90;99.30;;;;;;5065888;28;19916;-69
2021/04/06 10:10:26;;;;;;;;;;;3.80;99.40;;;;;;5063845;28;19951;-70
2021/04/06 10:12:53;;;;;;;;;;;3.70;99.90;;;;;;5059932;28;20273;-70
2021/04/06 10:15:19;;;;;;;;;;;3.70;99.90;;;;;;5065112;28;20412;-70
2021/04/06 10:17:45;;;;;;;;;;;3.80;99.90;;;;;;5069286;28;19908;-70
2021/04/06 10:20:15;;;;;;;;;;;3.90;99.90;;;;;;5066972;28;20396;-70
2021/04/06 10:22:42;;;;;;;;;;;4.00;99.90;;;;;;5068181;28;19958;-70
2021/04/06 10:25:08;;;;;;;;;;;4.00;99.90;;;;;;5073296;28;19916;-69
2021/04/06 10:27:37;;;;;;;;;;;4.20;99.90;;;;;;5064491;28;20374;-69
2021/04/06 10:30:26;;;;;;;;;;;4.30;99.30;;;;;;5059322;28;19909;-69
2021/04/06 10:33:01;;;;;;;;;;;4.40;99.50;;;;;;5056627;28;19954;-69
2021/04/06 10:35:28;;;;;;;;;;;4.80;98.30;;;;;;5061783;28;19917;-69
2021/04/06 10:37:55;;;;;;;;;;;4.70;98.10;;;;;;5060041;28;19908;-69
2021/04/06 10:40:32;;;;;;;;;;;4.70;98.70;;;;;;5067200;28;19912;-69
2021/04/06 10:43:05;;;;;;;;;;;5.10;98.40;;;;;;5066662;28;20099;-69
2021/04/06 10:45:32;;;;;;;;;;;6.00;98.90;;;;;;5080375;28;20273;-69
2021/04/06 10:48:03;;;;;;;;;;;6.90;96.40;;;;;;5064014;28;19908;-69
2021/04/06 10:50:29;;;;;;;;;;;7.50;94.90;;;;;;5081674;28;19908;-70
2021/04/06 10:52:55;;;;;;;;;;;7.50;92.20;;;;;;5058265;28;20285;-69
2021/04/06 10:55:30;;;;;;;;;;;7.10;93.00;;;;;;5080133;28;19912;-69
2021/04/06 10:57:56;;;;;;;;;;;6.50;93.90;;;;;;5085636;28;19908;-69
2021/04/06 11:00:23;;;;;;;;;;;5.70;92.60;;;;;;5094006;28;19908;-69
2021/04/06 11:02:49;;;;;;;;;;;5.10;93.30;;;;;;5092809;28;20309;-70
2021/04/06 11:05:28;;;;;;;;;;;4.70;93.70;;;;;;5069124;28;20483;-70
2021/04/06 11:07:54;;;;;;;;;;;4.50;95.00;;;;;;5068886;28;19966;-70
2021/04/06 11:10:22;;;;;;;;;;;4.40;95.80;;;;;;5075161;28;19912;-69
2021/04/06 11:12:47;;;;;;;;;;;4.20;95.70;;;;;;5057211;28;19916;-70
2021/04/06 11:15:13;;;;;;;;;;;4.30;95.60;;;;;;5052992;28;19909;-70
2021/04/06 11:17:39;;;;;;;;;;;4.40;95.00;;;;;;5053320;28;20203;-70
2021/04/06 11:20:05;;;;;;;;;;;4.30;95.70;;;;;;5073260;28;19995;-70
2021/04/06 11:22:31;;;;;;;;;;;4.30;95.70;;;;;;5068104;28;19917;-70
2021/04/06 11:24:56;;;;;;;;;;;4.40;95.80;;;;;;5067356;28;19908;-70
2021/04/06 11:27:22;;;;;;;;;;;4.50;96.00;;;;;;5072767;28;19919;-70
2021/04/06 11:29:48;;;;;;;;;;;4.90;95.60;;;;;;5073327;28;19912;-70
2021/04/06 11:32:15;;;;;;;;;;;5.10;95.20;;;;;;5066521;28;19909;-70
2021/04/06 11:34:41;;;;;;;;;;;5.10;95.50;;;;;;5065862;28;20373;-70
2021/04/06 11:37:07;;;;;;;;;;;4.80;94.40;;;;;;5072517;28;19923;-70
2021/04/06 11:39:34;;;;;;;;;;;4.60;94.50;;;;;;5073203;28;19909;-70
2021/04/06 11:42:00;;;;;;;;;;;4.50;95.40;;;;;;5073064;28;19999;-70
2021/04/06 11:44:26;;;;;;;;;;;4.50;94.00;;;;;;5073133;28;19962;-70
2021/04/06 11:46:52;;;;;;;;;;;4.60;94.30;;;;;;5072535;28;19916;-70
2021/04/06 11:49:19;;;;;;;;;;;4.60;95.50;;;;;;5065830;28;20397;-70
2021/04/06 11:51:45;;;;;;;;;;;5.10;95.60;;;;;;5070855;28;19951;-70
2021/04/06 11:54:12;;;;;;;;;;;5.30;93.80;;;;;;5072100;28;19944;-70
2021/04/06 11:56:37;;;;;;;;;;;5.10;93.60;;;;;;5072170;28;20323;-70
2021/04/06 11:59:03;;;;;;;;;;;4.80;93.30;;;;;;5070293;28;19926;-70
2021/04/06 12:01:29;;;;;;;;;;;4.40;93.10;;;;;;5071770;28;19932;-71
2021/04/06 12:03:55;;;;;;;;;;;4.20;93.20;;;;;;5072453;28;20377;-70
2021/04/06 12:06:21;;;;;;;;;;;4.20;93.90;;;;;;5072497;28;19997;-71
2021/04/06 12:08:46;;;;;;;;;;;4.40;94.50;;;;;;5071609;28;20434;-71
2021/04/06 12:11:12;;;;;;;;;;;4.60;94.10;;;;;;5072674;28;19932;-71
2021/04/06 12:13:37;;;;;;;;;;;4.90;93.00;;;;;;5072501;28;19908;-71
2021/04/06 12:16:04;;;;;;;;;;;5.10;93.20;;;;;;5072083;28;20008;-71
2021/04/06 12:18:30;;;;;;;;;;;5.00;91.40;;;;;;5072323;28;19908;-71
2021/04/06 12:20:55;;;;;;;;;;;4.90;92.80;;;;;;5065782;28;19909;-71
2021/04/06 12:23:21;;;;;;;;;;;4.80;92.80;;;;;;5070464;28;20385;-71
2021/04/06 12:25:46;;;;;;;;;;;4.80;92.10;;;;;;5077592;28;20365;-71
2021/04/06 12:28:12;;;;;;;;;;;4.80;92.20;;;;;;5069154;28;19923;-71
2021/04/06 12:30:37;;;;;;;;;;;4.80;92.60;;;;;;5069687;28;20288;-71
2021/04/06 12:33:03;;;;;;;;;;;4.90;91.60;;;;;;5076915;28;19958;-71
2021/04/06 12:35:28;;;;;;;;;;;4.80;91.40;;;;;;5063701;28;20007;-71
2021/04/06 12:37:56;;;;;;;;;;;4.70;90.70;;;;;;5051557;28;19909;-71
2021/04/06 12:40:21;;;;;;;;;;;4.70;91.00;;;;;;5079576;28;20011;-71
2021/04/06 12:42:46;;;;;;;;;;;4.80;91.10;;;;;;5069628;28;20433;-71
2021/04/06 12:45:13;;;;;;;;;;;4.90;91.40;;;;;;5067409;28;19990;-71
2021/04/06 12:47:39;;;;;;;;;;;4.90;90.60;;;;;;5077521;28;19919;-71
2021/04/06 12:50:05;;;;;;;;;;;4.60;87.90;;;;;;5078239;28;20007;-71
2021/04/06 12:52:31;;;;;;;;;;;4.30;88.70;;;;;;5066927;28;19962;-71
2021/04/06 12:54:56;;;;;;;;;;;4.30;89.60;;;;;;5061029;28;20384;-72
2021/04/06 12:57:23;;;;;;;;;;;4.40;90.60;;;;;;5058585;28;19908;-71
2021/04/06 12:59:49;;;;;;;;;;;4.50;90.30;;;;;;5063016;28;19916;-72
2021/04/06 13:02:15;;;;;;;;;;;4.70;90.30;;;;;;5063717;28;19995;-72
2021/04/06 13:04:40;;;;;;;;;;;4.60;85.00;;;;;;5064921;28;20006;-72
2021/04/06 13:07:05;;;;;;;;;;;4.40;86.50;;;;;;5070893;28;20305;-71
2021/04/06 13:09:31;;;;;;;;;;;4.40;86.60;;;;;;5069866;28;19908;-71
2021/04/06 13:11:57;;;;;;;;;;;4.60;90.00;;;;;;5058948;28;20412;-71
2021/04/06 13:14:23;;;;;;;;;;;4.80;88.20;;;;;;5055568;28;19916;-71
2021/04/06 13:16:49;;;;;;;;;;;4.80;83.20;;;;;;5052155;28;20278;-72
2021/04/06 13:19:14;;;;;;;;;;;4.90;85.10;;;;;;5066199;28;19909;-72
2021/04/06 13:21:40;;;;;;;;;;;4.90;83.40;;;;;;5066143;28;19913;-72
2021/04/06 13:24:05;;;;;;;;;;;4.90;84.10;;;;;;5058078;28;20346;-72
2021/04/06 13:26:31;;;;;;;;;;;5.00;87.20;;;;;;5060812;28;19913;-72
2021/04/06 13:28:56;;;;;;;;;;;5.20;86.30;;;;;;5057140;28;20034;-72
2021/04/06 13:31:22;;;;;;;;;;;5.20;84.60;;;;;;5066926;28;19912;-72
2021/04/06 13:33:48;;;;;;;;;;;5.20;83.40;;;;;;5066040;28;19934;-72
2021/04/06 13:36:13;;;;;;;;;;;5.30;83.20;;;;;;5054461;28;19995;-72
2021/04/06 13:38:38;;;;;;;;;;;5.40;79.20;;;;;;5062629;28;19909;-72
2021/04/06 13:41:04;;;;;;;;;;;5.20;76.90;;;;;;5061312;28;19954;-72
2021/04/06 13:43:30;;;;;;;;;;;5.00;80.30;;;;;;5061785;28;20586;-72
2021/04/06 13:45:55;;;;;;;;;;;5.00;78.20;;;;;;5059123;28;20420;-72
2021/04/06 13:48:21;;;;;;;;;;;5.00;76.50;;;;;;5060939;28;19916;-72
2021/04/06 13:50:46;;;;;;;;;;;4.90;76.40;;;;;;5061362;28;19912;-72
2021/04/06 13:53:12;;;;;;;;;;;4.80;78.30;;;;;;5064973;28;19970;-72
2021/04/06 13:55:38;;;;;;;;;;;4.60;74.80;;;;;;5067579;28;20313;-72
2021/04/06 13:58:04;;;;;;;;;;;4.60;77.50;;;;;;5062043;28;19935;-72
2021/04/06 14:00:34;;;;;;;;;;;4.60;78.00;;;;;;5064447;28;20358;-72
2021/04/06 14:03:00;;;;;;;;;;;4.50;79.40;;;;;;5061028;28;20327;-72
2021/04/06 14:05:26;;;;;;;;;;;4.40;79.10;;;;;;5068252;28;19912;-72
2021/04/06 14:07:54;;;;;;;;;;;4.10;84.80;;;;;;5062850;28;19975;-72
2021/04/06 14:10:19;;;;;;;;;;;3.50;91.30;;;;;;5059293;28;20361;-72
2021/04/06 14:12:45;;;;;;;;;;;2.80;93.10;;;;;;5058036;28;19955;-72
2021/04/06 14:15:11;;;;;;;;;;;2.20;95.10;;;;;;5063032;28;20018;-72
2021/04/06 14:17:37;;;;;;;;;;;1.60;98.60;;;;;;5066095;28;19944;-71
2021/04/06 14:20:05;;;;;;;;;;;1.10;99.90;;;;;;5063783;28;20320;-72
2021/04/06 14:22:31;;;;;;;;;;;0.90;99.90;;;;;;5056839;28;19919;-72
2021/04/06 14:24:56;;;;;;;;;;;0.80;99.90;;;;;;5063104;28;19909;-72
2021/04/06 14:27:22;;;;;;;;;;;0.90;99.90;;;;;;5057624;28;20374;-72